sensor_id;sensor_type;location;lat;lon;timestamp;temperature;humidity
5972;DHT22;3012;49.944;8.454;2023-09-19T00:00:21;18.30;99.90
5972;DHT22;3012;49.944;8.454;2023-09-19T00:02:55;18.20;99.90
5972;DHT22;3012;49.944;8.454;2023-09-19T00:05:24;18.20;99.90
5972;DHT22;3012;49.944;8.454;2023-09-19T00:07:56;18.20;99.90
5972;DHT22;3012;49.944;8.454;2023-09-19T00:10:26;18.20;99.90
5972;DHT22;3012;49.944;8.454;2023-09-19T00:12:55;18.30;99.90
5972;DHT22;3012;49.944;8.454;2023-09-19T00:15:26;18.70;99.90
5972;DHT22;3012;49.944;8.454;2023-09-19T00:17:55;18.20;99.90
5972;DHT22;3012;49.944;8.454;2023-09-19T00:20:23;17.60;99.90
5972;DHT22;3012;49.944;8.454;2023-09-19T00:22:52;18.40;99.90
5972;DHT22;3012;49.944;8.454;2023-09-19T00:25:20;18.10;99.90
5972;DHT22;3012;49.944;8.454;2023-09-19T00:27:48;18.20;99.90
5972;DHT22;3012;49.944;8.454;2023-09-19T00:30:19;18.10;99.90
5972;DHT22;3012;49.944;8.454;2023-09-19T00:32:50;18.10;99.90
5972;DHT22;3012;49.944;8.454;2023-09-19T00:35:21;18.10;99.90
5972;DHT22;3012;49.944;8.454;2023-09-19T00:37:51;17.90;99.90
5972;DHT22;3012;49.944;8.454;2023-09-19T00:40:19;18.20;99.90
5972;DHT22;3012;49.944;8.454;2023-09-19T00:42:49;18.00;99.90
5972;DHT22;3012;49.944;8.454;2023-09-19T00:45:18;18.20;99.90
5972;DHT22;3012;49.944;8.454;2023-09-19T00:47:49;18.20;99.90
5972;DHT22;3012;49.944;8.454;2023-09-19T00:50:18;18.20;99.90
5972;DHT22;3012;49.944;8.454;2023-09-19T00:52:48;18.30;99.90
5972;DHT22;3012;49.944;8.454;2023-09-19T00:55:17;18.20;99.90
5972;DHT22;3012;49.944;8.454;2023-09-19T00:57:47;18.20;99.90
5972;DHT22;3012;49.944;8.454;2023-09-19T01:00:17;18.20;99.90
5972;DHT22;3012;49.944;8.454;2023-09-19T01:02:48;18.30;99.90
5972;DHT22;3012;49.944;8.454;2023-09-19T02:11:16;17.90;99.90
5972;DHT22;3012;49.944;8.454;2023-09-19T02:13:44;18.00;99.90
5972;DHT22;3012;49.944;8.454;2023-09-19T02:16:12;17.90;99.90
5972;DHT22;3012;49.944;8.454;2023-09-19T02:18:40;18.00;99.90
5972;DHT22;3012;49.944;8.454;2023-09-19T02:21:09;18.00;99.90
5972;DHT22;3012;49.944;8.454;2023-09-19T02:23:39;18.10;99.90
5972;DHT22;3012;49.944;8.454;2023-09-19T02:26:08;18.00;99.90
5972;DHT22;3012;49.944;8.454;2023-09-19T02:28:37;18.00;99.90
5972;DHT22;3012;49.944;8.454;2023-09-19T02:31:05;18.00;99.90
5972;DHT22;3012;49.944;8.454;2023-09-19T02:33:33;18.10;99.90
5972;DHT22;3012;49.944;8.454;2023-09-19T02:36:03;18.00;99.90
5972;DHT22;3012;49.944;8.454;2023-09-19T02:38:32;18.00;99.90
5972;DHT22;3012;49.944;8.454;2023-09-19T02:41:00;18.00;99.90
5972;DHT22;3012;49.944;8.454;2023-09-19T02:43:28;18.40;99.90
5972;DHT22;3012;49.944;8.454;2023-09-19T02:45:58;17.90;99.90
5972;DHT22;3012;49.944;8.454;2023-09-19T02:48:26;17.90;99.90
5972;DHT22;3012;49.944;8.454;2023-09-19T02:50:56;17.90;99.90
5972;DHT22;3012;49.944;8.454;2023-09-19T02:53:24;17.90;99.90
5972;DHT22;3012;49.944;8.454;2023-09-19T02:55:52;17.90;99.90
5972;DHT22;3012;49.944;8.454;2023-09-19T02:58:21;17.90;99.90
5972;DHT22;3012;49.944;8.454;2023-09-19T03:00:51;18.10;99.90
5972;DHT22;3012;49.944;8.454;2023-09-19T03:03:23;17.90;99.90
5972;DHT22;3012;49.944;8.454;2023-09-19T03:05:52;17.80;99.90
5972;DHT22;3012;49.944;8.454;2023-09-19T03:08:21;17.80;99.90
5972;DHT22;3012;49.944;8.454;2023-09-19T03:10:50;17.90;99.90
5972;DHT22;3012;49.944;8.454;2023-09-19T03:13:18;17.30;99.90
5972;DHT22;3012;49.944;8.454;2023-09-19T03:15:47;17.80;99.90
5972;DHT22;3012;49.944;8.454;2023-09-19T03:18:17;17.80;99.90
5972;DHT22;3012;49.944;8.454;2023-09-19T03:20:55;17.60;99.90
5972;DHT22;3012;49.944;8.454;2023-09-19T03:23:23;17.80;99.90
5972;DHT22;3012;49.944;8.454;2023-09-19T03:25:53;17.20;99.90
5972;DHT22;3012;49.944;8.454;2023-09-19T03:28:21;17.60;99.90
5972;DHT22;3012;49.944;8.454;2023-09-19T03:31:00;17.50;99.90
5972;DHT22;3012;49.944;8.454;2023-09-19T03:33:28;17.40;99.90
5972;DHT22;3012;49.944;8.454;2023-09-19T03:36:00;17.60;99.90
5972;DHT22;3012;49.944;8.454;2023-09-19T03:38:31;17.60;99.90
5972;DHT22;3012;49.944;8.454;2023-09-19T03:41:00;17.60;99.90
5972;DHT22;3012;49.944;8.454;2023-09-19T03:43:28;17.50;99.90
5972;DHT22;3012;49.944;8.454;2023-09-19T03:45:56;17.60;99.90
5972;DHT22;3012;49.944;8.454;2023-09-19T03:48:25;17.50;99.90
5972;DHT22;3012;49.944;8.454;2023-09-19T03:50:53;17.70;99.90
5972;DHT22;3012;49.944;8.454;2023-09-19T03:53:24;17.70;99.90
5972;DHT22;3012;49.944;8.454;2023-09-19T03:55:52;17.50;99.90
5972;DHT22;3012;49.944;8.454;2023-09-19T03:58:20;17.10;99.90
5972;DHT22;3012;49.944;8.454;2023-09-19T04:00:48;17.50;99.90
5972;DHT22;3012;49.944;8.454;2023-09-19T04:03:17;17.10;99.90
5972;DHT22;3012;49.944;8.454;2023-09-19T04:05:48;17.10;99.90
5972;DHT22;3012;49.944;8.454;2023-09-19T04:08:16;17.00;99.90
5972;DHT22;3012;49.944;8.454;2023-09-19T04:10:45;17.40;99.90
5972;DHT22;3012;49.944;8.454;2023-09-19T04:13:13;17.50;99.90
5972;DHT22;3012;49.944;8.454;2023-09-19T04:15:42;17.40;99.90
5972;DHT22;3012;49.944;8.454;2023-09-19T04:18:10;17.30;99.90
5972;DHT22;3012;49.944;8.454;2023-09-19T04:20:38;17.30;99.90
5972;DHT22;3012;49.944;8.454;2023-09-19T04:23:06;16.80;99.90
5972;DHT22;3012;49.944;8.454;2023-09-19T04:25:35;17.30;99.90
5972;DHT22;3012;49.944;8.454;2023-09-19T04:28:05;17.40;99.90
5972;DHT22;3012;49.944;8.454;2023-09-19T04:30:33;17.40;99.90
5972;DHT22;3012;49.944;8.454;2023-09-19T04:33:01;16.90;99.90
5972;DHT22;3012;49.944;8.454;2023-09-19T04:35:33;17.60;99.90
5972;DHT22;3012;49.944;8.454;2023-09-19T04:38:01;16.80;99.90
5972;DHT22;3012;49.944;8.454;2023-09-19T04:40:30;17.30;99.90
5972;DHT22;3012;49.944;8.454;2023-09-19T04:42:58;17.30;99.90
5972;DHT22;3012;49.944;8.454;2023-09-19T04:45:28;17.30;99.90
5972;DHT22;3012;49.944;8.454;2023-09-19T04:47:56;16.90;99.90
5972;DHT22;3012;49.944;8.454;2023-09-19T04:50:24;17.20;99.90
5972;DHT22;3012;49.944;8.454;2023-09-19T04:52:55;17.20;99.90
5972;DHT22;3012;49.944;8.454;2023-09-19T04:55:22;17.20;99.90
5972;DHT22;3012;49.944;8.454;2023-09-19T04:57:51;17.10;99.90
5972;DHT22;3012;49.944;8.454;2023-09-19T05:00:21;16.70;99.90
5972;DHT22;3012;49.944;8.454;2023-09-19T05:02:54;17.10;99.90
5972;DHT22;3012;49.944;8.454;2023-09-19T05:05:23;16.60;99.90
5972;DHT22;3012;49.944;8.454;2023-09-19T05:07:52;17.10;99.90
5972;DHT22;3012;49.944;8.454;2023-09-19T05:10:22;17.10;99.90
5972;DHT22;3012;49.944;8.454;2023-09-19T05:12:53;17.10;99.90
5972;DHT22;3012;49.944;8.454;2023-09-19T05:15:21;17.00;99.90
5972;DHT22;3012;49.944;8.454;2023-09-19T05:17:52;16.60;99.90
5972;DHT22;3012;49.944;8.454;2023-09-19T05:20:24;17.00;99.90
5972;DHT22;3012;49.944;8.454;2023-09-19T05:22:59;16.90;99.90
5972;DHT22;3012;49.944;8.454;2023-09-19T05:25:29;17.00;99.90
5972;DHT22;3012;49.944;8.454;2023-09-19T05:27:59;16.70;99.90
5972;DHT22;3012;49.944;8.454;2023-09-19T05:30:30;17.00;99.90
5972;DHT22;3012;49.944;8.454;2023-09-19T05:32:59;16.90;99.90
5972;DHT22;3012;49.944;8.454;2023-09-19T05:35:28;16.90;99.90
5972;DHT22;3012;49.944;8.454;2023-09-19T05:37:56;17.00;99.90
5972;DHT22;3012;49.944;8.454;2023-09-19T05:40:25;16.80;99.90
5972;DHT22;3012;49.944;8.454;2023-09-19T05:42:53;16.90;99.90
5972;DHT22;3012;49.944;8.454;2023-09-19T05:45:21;16.90;99.90
5972;DHT22;3012;49.944;8.454;2023-09-19T05:47:50;16.50;99.90
5972;DHT22;3012;49.944;8.454;2023-09-19T05:50:21;16.40;99.90
5972;DHT22;3012;49.944;8.454;2023-09-19T05:52:54;16.40;99.90
5972;DHT22;3012;49.944;8.454;2023-09-19T05:55:23;16.70;99.90
5972;DHT22;3012;49.944;8.454;2023-09-19T05:57:52;17.00;99.90
5972;DHT22;3012;49.944;8.454;2023-09-19T06:00:22;16.90;99.90
5972;DHT22;3012;49.944;8.454;2023-09-19T06:02:51;16.90;99.90
5972;DHT22;3012;49.944;8.454;2023-09-19T06:05:21;17.50;99.90
5972;DHT22;3012;49.944;8.454;2023-09-19T06:07:49;17.00;99.90
5972;DHT22;3012;49.944;8.454;2023-09-19T06:10:19;17.10;99.90
5972;DHT22;3012;49.944;8.454;2023-09-19T06:12:49;17.00;99.90
5972;DHT22;3012;49.944;8.454;2023-09-19T06:15:17;17.10;99.90
5972;DHT22;3012;49.944;8.454;2023-09-19T06:17:48;17.00;99.90
5972;DHT22;3012;49.944;8.454;2023-09-19T06:20:17;16.70;99.90
5972;DHT22;3012;49.944;8.454;2023-09-19T06:22:48;17.10;99.90
5972;DHT22;3012;49.944;8.454;2023-09-19T06:25:16;17.40;99.90
5972;DHT22;3012;49.944;8.454;2023-09-19T06:27:47;16.60;99.90
5972;DHT22;3012;49.944;8.454;2023-09-19T06:30:15;16.90;99.90
5972;DHT22;3012;49.944;8.454;2023-09-19T06:32:44;17.10;99.90
5972;DHT22;3012;49.944;8.454;2023-09-19T06:35:14;17.00;99.90
5972;DHT22;3012;49.944;8.454;2023-09-19T06:37:43;17.30;99.90
5972;DHT22;3012;49.944;8.454;2023-09-19T06:40:13;17.10;99.90
5972;DHT22;3012;49.944;8.454;2023-09-19T06:42:43;16.80;99.90
5972;DHT22;3012;49.944;8.454;2023-09-19T06:45:12;17.20;99.90
5972;DHT22;3012;49.944;8.454;2023-09-19T06:47:44;16.80;99.90
5972;DHT22;3012;49.944;8.454;2023-09-19T06:50:16;17.40;99.90
5972;DHT22;3012;49.944;8.454;2023-09-19T06:52:45;16.80;99.90
5972;DHT22;3012;49.944;8.454;2023-09-19T06:55:19;17.40;99.90
5972;DHT22;3012;49.944;8.454;2023-09-19T06:57:47;16.90;99.90
5972;DHT22;3012;49.944;8.454;2023-09-19T07:00:16;17.50;99.90
5972;DHT22;3012;49.944;8.454;2023-09-19T07:02:54;17.50;99.90
5972;DHT22;3012;49.944;8.454;2023-09-19T07:05:22;17.20;99.90
5972;DHT22;3012;49.944;8.454;2023-09-19T07:07:50;17.50;99.90
5972;DHT22;3012;49.944;8.454;2023-09-19T07:10:19;17.30;99.90
5972;DHT22;3012;49.944;8.454;2023-09-19T07:12:55;17.60;99.90
5972;DHT22;3012;49.944;8.454;2023-09-19T07:15:23;17.20;99.90
5972;DHT22;3012;49.944;8.454;2023-09-19T07:17:52;17.70;99.90
5972;DHT22;3012;49.944;8.454;2023-09-19T07:20:21;17.80;99.90
5972;DHT22;3012;49.944;8.454;2023-09-19T07:22:49;17.20;99.90
5972;DHT22;3012;49.944;8.454;2023-09-19T07:25:19;17.90;99.90
5972;DHT22;3012;49.944;8.454;2023-09-19T07:27:47;18.00;99.90
5972;DHT22;3012;49.944;8.454;2023-09-19T07:30:15;17.70;99.90
5972;DHT22;3012;49.944;8.454;2023-09-19T07:32:44;17.80;99.90
5972;DHT22;3012;49.944;8.454;2023-09-19T07:35:12;17.50;99.90
5972;DHT22;3012;49.944;8.454;2023-09-19T07:37:40;18.10;99.90
5972;DHT22;3012;49.944;8.454;2023-09-19T07:40:09;18.00;99.90
5972;DHT22;3012;49.944;8.454;2023-09-19T07:42:39;17.80;99.90
5972;DHT22;3012;49.944;8.454;2023-09-19T07:45:08;18.00;99.90
5972;DHT22;3012;49.944;8.454;2023-09-19T07:47:43;18.10;99.90
5972;DHT22;3012;49.944;8.454;2023-09-19T07:50:12;18.10;99.90
5972;DHT22;3012;49.944;8.454;2023-09-19T07:52:39;18.10;99.90
5972;DHT22;3012;49.944;8.454;2023-09-19T07:55:08;18.20;99.90
5972;DHT22;3012;49.944;8.454;2023-09-19T07:57:39;18.30;99.90
5972;DHT22;3012;49.944;8.454;2023-09-19T08:00:08;18.30;99.90
5972;DHT22;3012;49.944;8.454;2023-09-19T08:02:39;18.30;99.90
5972;DHT22;3012;49.944;8.454;2023-09-19T08:05:09;18.00;99.90
5972;DHT22;3012;49.944;8.454;2023-09-19T08:07:38;18.30;99.90
5972;DHT22;3012;49.944;8.454;2023-09-19T08:10:08;18.40;99.90
5972;DHT22;3012;49.944;8.454;2023-09-19T08:12:42;18.30;99.90
5972;DHT22;3012;49.944;8.454;2023-09-19T08:15:14;18.00;99.90
5972;DHT22;3012;49.944;8.454;2023-09-19T08:17:42;18.40;99.90
5972;DHT22;3012;49.944;8.454;2023-09-19T08:20:11;18.30;99.90
5972;DHT22;3012;49.944;8.454;2023-09-19T08:22:43;18.50;99.90
5972;DHT22;3012;49.944;8.454;2023-09-19T08:25:15;18.50;99.90
5972;DHT22;3012;49.944;8.454;2023-09-19T08:27:47;18.50;99.90
5972;DHT22;3012;49.944;8.454;2023-09-19T08:30:16;18.50;99.90
5972;DHT22;3012;49.944;8.454;2023-09-19T08:32:47;18.10;99.90
5972;DHT22;3012;49.944;8.454;2023-09-19T08:35:15;18.50;99.90
5972;DHT22;3012;49.944;8.454;2023-09-19T08:37:43;17.90;99.90
5972;DHT22;3012;49.944;8.454;2023-09-19T08:40:13;18.30;99.90
5972;DHT22;3012;49.944;8.454;2023-09-19T08:42:49;18.40;99.90
5972;DHT22;3012;49.944;8.454;2023-09-19T08:45:17;18.00;99.90
5972;DHT22;3012;49.944;8.454;2023-09-19T08:47:47;18.40;99.90
5972;DHT22;3012;49.944;8.454;2023-09-19T08:50:22;18.60;99.90
5972;DHT22;3012;49.944;8.454;2023-09-19T08:52:54;18.90;99.90
5972;DHT22;3012;49.944;8.454;2023-09-19T08:55:27;19.10;99.90
5972;DHT22;3012;49.944;8.454;2023-09-19T08:58:01;19.20;99.90
5972;DHT22;3012;49.944;8.454;2023-09-19T09:00:31;19.20;99.90
5972;DHT22;3012;49.944;8.454;2023-09-19T09:03:01;19.20;99.90
5972;DHT22;3012;49.944;8.454;2023-09-19T09:05:31;19.60;99.90
5972;DHT22;3012;49.944;8.454;2023-09-19T09:08:00;19.20;99.90
5972;DHT22;3012;49.944;8.454;2023-09-19T09:10:30;18.80;99.90
5972;DHT22;3012;49.944;8.454;2023-09-19T09:13:00;19.30;99.90
5972;DHT22;3012;49.944;8.454;2023-09-19T09:15:30;19.40;99.90
5972;DHT22;3012;49.944;8.454;2023-09-19T09:17:59;19.40;99.90
5972;DHT22;3012;49.944;8.454;2023-09-19T09:20:27;19.20;99.90
5972;DHT22;3012;49.944;8.454;2023-09-19T09:22:56;19.60;99.90
5972;DHT22;3012;49.944;8.454;2023-09-19T09:25:49;19.70;99.90
5972;DHT22;3012;49.944;8.454;2023-09-19T09:28:24;19.70;99.90
5972;DHT22;3012;49.944;8.454;2023-09-19T09:30:54;19.80;99.90
5972;DHT22;3012;49.944;8.454;2023-09-19T09:33:22;19.80;99.90
5972;DHT22;3012;49.944;8.454;2023-09-19T09:35:52;19.80;99.90
5972;DHT22;3012;49.944;8.454;2023-09-19T09:38:21;19.80;99.90
5972;DHT22;3012;49.944;8.454;2023-09-19T09:40:53;19.80;99.90
5972;DHT22;3012;49.944;8.454;2023-09-19T09:43:32;19.90;99.90
5972;DHT22;3012;49.944;8.454;2023-09-19T09:46:11;20.00;99.90
5972;DHT22;3012;49.944;8.454;2023-09-19T09:49:10;20.00;99.90
5972;DHT22;3012;49.944;8.454;2023-09-19T09:51:49;20.00;99.90
5972;DHT22;3012;49.944;8.454;2023-09-19T09:54:28;20.00;99.90
5972;DHT22;3012;49.944;8.454;2023-09-19T09:57:04;20.00;99.90
5972;DHT22;3012;49.944;8.454;2023-09-19T09:59:47;20.00;99.90
5972;DHT22;3012;49.944;8.454;2023-09-19T10:02:17;20.10;99.90
5972;DHT22;3012;49.944;8.454;2023-09-19T10:04:52;20.00;99.90
5972;DHT22;3012;49.944;8.454;2023-09-19T10:07:27;20.40;99.90
5972;DHT22;3012;49.944;8.454;2023-09-19T10:10:00;20.30;99.90
5972;DHT22;3012;49.944;8.454;2023-09-19T10:12:42;20.40;99.90
5972;DHT22;3012;49.944;8.454;2023-09-19T10:15:12;20.30;99.90
5972;DHT22;3012;49.944;8.454;2023-09-19T10:17:43;20.40;99.90
5972;DHT22;3012;49.944;8.454;2023-09-19T10:20:14;20.60;99.90
5972;DHT22;3012;49.944;8.454;2023-09-19T10:23:06;20.70;99.90
5972;DHT22;3012;49.944;8.454;2023-09-19T10:25:41;21.00;99.90
5972;DHT22;3012;49.944;8.454;2023-09-19T10:28:10;21.00;99.90
5972;DHT22;3012;49.944;8.454;2023-09-19T10:30:43;21.10;99.90
5972;DHT22;3012;49.944;8.454;2023-09-19T10:33:15;21.40;99.90
5972;DHT22;3012;49.944;8.454;2023-09-19T10:35:44;21.40;99.90
5972;DHT22;3012;49.944;8.454;2023-09-19T10:38:14;21.60;99.90
5972;DHT22;3012;49.944;8.454;2023-09-19T10:40:49;21.80;99.90
5972;DHT22;3012;49.944;8.454;2023-09-19T10:43:20;22.10;99.90
5972;DHT22;3012;49.944;8.454;2023-09-19T10:45:50;22.20;99.90
5972;DHT22;3012;49.944;8.454;2023-09-19T10:48:20;22.50;99.90
5972;DHT22;3012;49.944;8.454;2023-09-19T10:51:00;22.60;97.20
5972;DHT22;3012;49.944;8.454;2023-09-19T10:53:41;22.70;96.70
5972;DHT22;3012;49.944;8.454;2023-09-19T10:56:11;22.50;95.10
5972;DHT22;3012;49.944;8.454;2023-09-19T10:58:44;22.30;95.80
5972;DHT22;3012;49.944;8.454;2023-09-19T11:01:14;22.40;96.70
5972;DHT22;3012;49.944;8.454;2023-09-19T11:03:42;22.60;92.90
5972;DHT22;3012;49.944;8.454;2023-09-19T11:06:13;22.90;93.00
5972;DHT22;3012;49.944;8.454;2023-09-19T11:08:58;23.20;91.50
5972;DHT22;3012;49.944;8.454;2023-09-19T11:11:49;23.50;90.00
5972;DHT22;3012;49.944;8.454;2023-09-19T11:14:40;23.70;86.50
5972;DHT22;3012;49.944;8.454;2023-09-19T11:17:32;23.70;85.30
5972;DHT22;3012;49.944;8.454;2023-09-19T11:20:22;24.20;85.00
5972;DHT22;3012;49.944;8.454;2023-09-19T11:23:20;25.00;80.70
5972;DHT22;3012;49.944;8.454;2023-09-19T11:25:53;25.40;78.20
5972;DHT22;3012;49.944;8.454;2023-09-19T11:28:34;25.70;75.30
5972;DHT22;3012;49.944;8.454;2023-09-19T11:31:41;26.20;69.80
5972;DHT22;3012;49.944;8.454;2023-09-19T11:34:40;26.80;68.10
5972;DHT22;3012;49.944;8.454;2023-09-19T11:40:37;26.90;66.10
5972;DHT22;3012;49.944;8.454;2023-09-19T11:43:28;27.00;64.20
5972;DHT22;3012;49.944;8.454;2023-09-19T11:46:05;26.70;60.30
5972;DHT22;3012;49.944;8.454;2023-09-19T11:48:35;25.90;61.10
5972;DHT22;3012;49.944;8.454;2023-09-19T11:51:14;26.00;63.10
5972;DHT22;3012;49.944;8.454;2023-09-19T11:53:46;25.70;61.30
5972;DHT22;3012;49.944;8.454;2023-09-19T11:56:18;25.70;62.60
5972;DHT22;3012;49.944;8.454;2023-09-19T11:58:49;25.60;62.30
5972;DHT22;3012;49.944;8.454;2023-09-19T12:01:23;25.50;60.40
5972;DHT22;3012;49.944;8.454;2023-09-19T12:03:56;25.50;62.10
5972;DHT22;3012;49.944;8.454;2023-09-19T12:06:27;25.60;62.00
5972;DHT22;3012;49.944;8.454;2023-09-19T12:08:56;25.80;62.00
5972;DHT22;3012;49.944;8.454;2023-09-19T12:11:29;26.00;60.40
5972;DHT22;3012;49.944;8.454;2023-09-19T12:14:01;26.20;59.00
5972;DHT22;3012;49.944;8.454;2023-09-19T12:16:31;26.40;58.80
5972;DHT22;3012;49.944;8.454;2023-09-19T12:19:18;26.50;56.90
5972;DHT22;3012;49.944;8.454;2023-09-19T12:21:56;26.90;57.00
5972;DHT22;3012;49.944;8.454;2023-09-19T12:24:26;27.60;55.20
5972;DHT22;3012;49.944;8.454;2023-09-19T12:27:01;28.30;52.40
5972;DHT22;3012;49.944;8.454;2023-09-19T12:29:31;28.80;51.70
5972;DHT22;3012;49.944;8.454;2023-09-19T12:32:01;29.50;50.40
5972;DHT22;3012;49.944;8.454;2023-09-19T12:34:33;30.40;49.00
5972;DHT22;3012;49.944;8.454;2023-09-19T12:37:08;31.10;48.50
5972;DHT22;3012;49.944;8.454;2023-09-19T12:39:41;32.00;47.10
5972;DHT22;3012;49.944;8.454;2023-09-19T12:42:10;32.10;44.80
5972;DHT22;3012;49.944;8.454;2023-09-19T12:44:42;32.40;43.10
5972;DHT22;3012;49.944;8.454;2023-09-19T12:47:15;32.20;42.20
5972;DHT22;3012;49.944;8.454;2023-09-19T12:50:07;32.50;43.60
5972;DHT22;3012;49.944;8.454;2023-09-19T12:52:43;32.20;42.90
5972;DHT22;3012;49.944;8.454;2023-09-19T12:55:22;32.50;42.90
5972;DHT22;3012;49.944;8.454;2023-09-19T12:58:07;32.50;41.10
5972;DHT22;3012;49.944;8.454;2023-09-19T13:00:38;32.10;41.70
5972;DHT22;3012;49.944;8.454;2023-09-19T13:03:16;31.60;43.00
5972;DHT22;3012;49.944;8.454;2023-09-19T13:05:48;31.60;42.70
5972;DHT22;3012;49.944;8.454;2023-09-19T13:08:24;31.70;42.40
5972;DHT22;3012;49.944;8.454;2023-09-19T13:11:09;31.30;41.90
5972;DHT22;3012;49.944;8.454;2023-09-19T13:13:41;31.00;43.20
5972;DHT22;3012;49.944;8.454;2023-09-19T13:16:15;30.30;43.40
5972;DHT22;3012;49.944;8.454;2023-09-19T13:18:48;30.20;44.30
5972;DHT22;3012;49.944;8.454;2023-09-19T13:21:27;30.00;44.30
5972;DHT22;3012;49.944;8.454;2023-09-19T13:24:21;29.70;43.50
5972;DHT22;3012;49.944;8.454;2023-09-19T13:26:52;29.70;44.50
5972;DHT22;3012;49.944;8.454;2023-09-19T13:29:20;29.30;44.40
5972;DHT22;3012;49.944;8.454;2023-09-19T13:31:49;29.00;45.30
5972;DHT22;3012;49.944;8.454;2023-09-19T13:34:20;28.70;45.30
5972;DHT22;3012;49.944;8.454;2023-09-19T13:36:48;28.10;45.00
5972;DHT22;3012;49.944;8.454;2023-09-19T13:39:17;27.60;46.40
5972;DHT22;3012;49.944;8.454;2023-09-19T13:41:47;27.20;47.40
5972;DHT22;3012;49.944;8.454;2023-09-19T13:44:15;26.70;48.10
5972;DHT22;3012;49.944;8.454;2023-09-19T13:46:44;26.40;49.30
5972;DHT22;3012;49.944;8.454;2023-09-19T13:49:14;26.20;50.80
5972;DHT22;3012;49.944;8.454;2023-09-19T13:51:42;26.20;51.20
5972;DHT22;3012;49.944;8.454;2023-09-19T13:54:11;25.70;50.30
5972;DHT22;3012;49.944;8.454;2023-09-19T13:56:40;25.20;52.70
5972;DHT22;3012;49.944;8.454;2023-09-19T13:59:10;24.60;52.50
5972;DHT22;3012;49.944;8.454;2023-09-19T14:01:38;24.20;53.50
5972;DHT22;3012;49.944;8.454;2023-09-19T14:04:06;23.90;52.50
5972;DHT22;3012;49.944;8.454;2023-09-19T14:06:34;23.90;53.70
5972;DHT22;3012;49.944;8.454;2023-09-19T14:09:04;24.20;54.00
5972;DHT22;3012;49.944;8.454;2023-09-19T14:11:32;24.80;54.10
5972;DHT22;3012;49.944;8.454;2023-09-19T14:14:00;25.30;53.50
5972;DHT22;3012;49.944;8.454;2023-09-19T14:16:29;25.40;52.20
5972;DHT22;3012;49.944;8.454;2023-09-19T14:18:58;25.00;53.20
5972;DHT22;3012;49.944;8.454;2023-09-19T14:21:26;24.60;53.70
5972;DHT22;3012;49.944;8.454;2023-09-19T14:23:54;24.00;54.60
5972;DHT22;3012;49.944;8.454;2023-09-19T14:26:22;23.70;55.80
5972;DHT22;3012;49.944;8.454;2023-09-19T14:28:51;23.30;56.00
5972;DHT22;3012;49.944;8.454;2023-09-19T14:31:19;23.10;57.30
5972;DHT22;3012;49.944;8.454;2023-09-19T14:33:54;22.90;57.30
5972;DHT22;3012;49.944;8.454;2023-09-19T14:36:23;22.70;57.20
5972;DHT22;3012;49.944;8.454;2023-09-19T14:38:53;22.80;58.30
5972;DHT22;3012;49.944;8.454;2023-09-19T14:41:24;22.60;58.90
5972;DHT22;3012;49.944;8.454;2023-09-19T14:43:53;22.50;59.80
5972;DHT22;3012;49.944;8.454;2023-09-19T14:46:22;22.50;59.40
5972;DHT22;3012;49.944;8.454;2023-09-19T14:48:51;22.50;59.60
5972;DHT22;3012;49.944;8.454;2023-09-19T14:51:21;22.50;60.50
5972;DHT22;3012;49.944;8.454;2023-09-19T14:53:49;22.40;59.90
5972;DHT22;3012;49.944;8.454;2023-09-19T14:56:17;22.60;60.20
5972;DHT22;3012;49.944;8.454;2023-09-19T14:58:47;22.40;60.60
5972;DHT22;3012;49.944;8.454;2023-09-19T15:01:15;22.30;59.30
5972;DHT22;3012;49.944;8.454;2023-09-19T15:03:43;22.30;59.50
5972;DHT22;3012;49.944;8.454;2023-09-19T15:06:13;22.30;60.20
5972;DHT22;3012;49.944;8.454;2023-09-19T15:08:46;22.20;60.10
5972;DHT22;3012;49.944;8.454;2023-09-19T15:11:15;22.20;61.30
5972;DHT22;3012;49.944;8.454;2023-09-19T15:13:46;22.20;62.00
5972;DHT22;3012;49.944;8.454;2023-09-19T15:16:14;22.10;61.40
5972;DHT22;3012;49.944;8.454;2023-09-19T15:18:44;22.10;61.50
5972;DHT22;3012;49.944;8.454;2023-09-19T15:21:14;22.00;62.40
5972;DHT22;3012;49.944;8.454;2023-09-19T15:23:45;22.00;62.30
5972;DHT22;3012;49.944;8.454;2023-09-19T15:26:14;22.50;63.70
5972;DHT22;3012;49.944;8.454;2023-09-19T15:28:47;22.20;64.00
5972;DHT22;3012;49.944;8.454;2023-09-19T15:31:16;21.80;64.00
5972;DHT22;3012;49.944;8.454;2023-09-19T15:33:44;21.90;63.50
5972;DHT22;3012;49.944;8.454;2023-09-19T15:36:13;21.80;63.90
5972;DHT22;3012;49.944;8.454;2023-09-19T15:38:58;21.80;64.70
5972;DHT22;3012;49.944;8.454;2023-09-19T15:41:28;21.70;65.20
5972;DHT22;3012;49.944;8.454;2023-09-19T15:43:57;21.60;65.30
5972;DHT22;3012;49.944;8.454;2023-09-19T15:46:28;21.70;65.80
5972;DHT22;3012;49.944;8.454;2023-09-19T15:48:57;21.70;65.70
5972;DHT22;3012;49.944;8.454;2023-09-19T15:51:27;21.20;65.20
5972;DHT22;3012;49.944;8.454;2023-09-19T15:53:57;21.60;67.00
5972;DHT22;3012;49.944;8.454;2023-09-19T15:56:27;21.50;66.70
5972;DHT22;3012;49.944;8.454;2023-09-19T15:58:55;21.60;67.20
5972;DHT22;3012;49.944;8.454;2023-09-19T16:01:24;21.50;67.20
5972;DHT22;3012;49.944;8.454;2023-09-19T16:03:53;21.60;67.10
5972;DHT22;3012;49.944;8.454;2023-09-19T16:06:23;21.50;67.70
5972;DHT22;3012;49.944;8.454;2023-09-19T16:08:53;21.50;68.90
5972;DHT22;3012;49.944;8.454;2023-09-19T16:11:25;21.40;69.50
5972;DHT22;3012;49.944;8.454;2023-09-19T16:13:54;21.40;69.20
5972;DHT22;3012;49.944;8.454;2023-09-19T16:16:23;21.30;68.50
5972;DHT22;3012;49.944;8.454;2023-09-19T16:18:53;21.30;69.20
5972;DHT22;3012;49.944;8.454;2023-09-19T16:21:24;21.30;70.60
5972;DHT22;3012;49.944;8.454;2023-09-19T16:23:55;21.30;71.10
5972;DHT22;3012;49.944;8.454;2023-09-19T16:26:25;21.20;71.70
5972;DHT22;3012;49.944;8.454;2023-09-19T16:28:54;21.20;71.70
5972;DHT22;3012;49.944;8.454;2023-09-19T16:31:23;20.80;71.90
5972;DHT22;3012;49.944;8.454;2023-09-19T16:33:51;21.10;72.00
5972;DHT22;3012;49.944;8.454;2023-09-19T16:36:19;21.10;72.50
5972;DHT22;3012;49.944;8.454;2023-09-19T16:38:48;21.10;73.40
5972;DHT22;3012;49.944;8.454;2023-09-19T16:41:16;21.00;74.00
5972;DHT22;3012;49.944;8.454;2023-09-19T16:43:47;20.80;74.20
5972;DHT22;3012;49.944;8.454;2023-09-19T16:46:16;21.00;74.60
5972;DHT22;3012;49.944;8.454;2023-09-19T16:48:47;20.90;75.30
5972;DHT22;3012;49.944;8.454;2023-09-19T16:51:30;20.90;75.40
5972;DHT22;3012;49.944;8.454;2023-09-19T16:53:58;20.90;76.10
5972;DHT22;3012;49.944;8.454;2023-09-19T16:56:26;20.90;76.20
5972;DHT22;3012;49.944;8.454;2023-09-19T16:58:56;21.00;77.00
5972;DHT22;3012;49.944;8.454;2023-09-19T17:01:28;20.80;77.30
5972;DHT22;3012;49.944;8.454;2023-09-19T17:03:59;20.40;77.40
5972;DHT22;3012;49.944;8.454;2023-09-19T17:06:29;20.80;78.20
5972;DHT22;3012;49.944;8.454;2023-09-19T17:08:57;20.70;78.10
5972;DHT22;3012;49.944;8.454;2023-09-19T17:11:25;20.70;78.50
5972;DHT22;3012;49.944;8.454;2023-09-19T17:13:53;20.70;78.90
5972;DHT22;3012;49.944;8.454;2023-09-19T17:16:25;20.60;78.80
5972;DHT22;3012;49.944;8.454;2023-09-19T17:18:56;20.20;78.70
5972;DHT22;3012;49.944;8.454;2023-09-19T17:21:27;20.60;79.90
5972;DHT22;3012;49.944;8.454;2023-09-19T17:23:55;20.30;81.10
5972;DHT22;3012;49.944;8.454;2023-09-19T17:26:25;20.50;80.90
5972;DHT22;3012;49.944;8.454;2023-09-19T17:28:55;20.50;80.50
5972;DHT22;3012;49.944;8.454;2023-09-19T17:31:26;20.50;80.70
5972;DHT22;3012;49.944;8.454;2023-09-19T17:33:55;20.50;80.60
5972;DHT22;3012;49.944;8.454;2023-09-19T17:36:24;20.50;80.10